sensor_id;sensor_type;location;lat;lon;timestamp;P1;durP1;ratioP1;P2;durP2;ratioP2
545;SDS011;259;53.304;9.816;2023-10-19T00:02:13;3.13;;;2.93;;
545;SDS011;259;53.304;9.816;2023-10-19T00:04:40;3.40;;;3.20;;
545;SDS011;259;53.304;9.816;2023-10-19T00:07:06;3.17;;;2.97;;
545;SDS011;259;53.304;9.816;2023-10-19T00:09:33;3.33;;;3.03;;
545;SDS011;259;53.304;9.816;2023-10-19T00:12:05;3.87;;;3.57;;
545;SDS011;259;53.304;9.816;2023-10-19T00:14:34;4.50;;;4.10;;
545;SDS011;259;53.304;9.816;2023-10-19T00:17:00;4.13;;;3.83;;
545;SDS011;259;53.304;9.816;2023-10-19T00:19:30;3.83;;;3.63;;
545;SDS011;259;53.304;9.816;2023-10-19T00:22:04;3.90;;;3.60;;
545;SDS011;259;53.304;9.816;2023-10-19T00:24:34;3.70;;;3.50;;
545;SDS011;259;53.304;9.816;2023-10-19T00:27:00;3.60;;;3.30;;
545;SDS011;259;53.304;9.816;2023-10-19T00:29:41;3.50;;;3.27;;
545;SDS011;259;53.304;9.816;2023-10-19T00:32:13;4.87;;;4.47;;
545;SDS011;259;53.304;9.816;2023-10-19T00:34:40;3.90;;;3.60;;
545;SDS011;259;53.304;9.816;2023-10-19T00:37:06;3.87;;;3.57;;
545;SDS011;259;53.304;9.816;2023-10-19T00:39:36;4.00;;;3.70;;
545;SDS011;259;53.304;9.816;2023-10-19T00:42:19;3.53;;;3.23;;
545;SDS011;259;53.304;9.816;2023-10-19T00:44:49;3.63;;;3.33;;
545;SDS011;259;53.304;9.816;2023-10-19T00:47:16;4.03;;;3.73;;
545;SDS011;259;53.304;9.816;2023-10-19T00:49:48;3.77;;;3.57;;
545;SDS011;259;53.304;9.816;2023-10-19T00:52:14;3.63;;;3.43;;
545;SDS011;259;53.304;9.816;2023-10-19T00:54:49;3.70;;;3.50;;
545;SDS011;259;53.304;9.816;2023-10-19T00:57:18;3.47;;;3.23;;
545;SDS011;259;53.304;9.816;2023-10-19T01:00:10;4.13;;;3.83;;
545;SDS011;259;53.304;9.816;2023-10-19T01:02:40;3.97;;;3.67;;
545;SDS011;259;53.304;9.816;2023-10-19T01:05:10;3.73;;;3.43;;
545;SDS011;259;53.304;9.816;2023-10-19T01:07:38;3.43;;;3.23;;
545;SDS011;259;53.304;9.816;2023-10-19T01:10:05;4.67;;;4.37;;
545;SDS011;259;53.304;9.816;2023-10-19T01:12:45;4.10;;;3.80;;
545;SDS011;259;53.304;9.816;2023-10-19T01:15:12;4.03;;;3.63;;
545;SDS011;259;53.304;9.816;2023-10-19T01:17:47;4.00;;;3.80;;
545;SDS011;259;53.304;9.816;2023-10-19T01:20:18;3.60;;;3.40;;
545;SDS011;259;53.304;9.816;2023-10-19T01:25:33;3.90;;;3.60;;
545;SDS011;259;53.304;9.816;2023-10-19T01:28:20;3.23;;;3.03;;
545;SDS011;259;53.304;9.816;2023-10-19T01:30:50;4.40;;;4.10;;
545;SDS011;259;53.304;9.816;2023-10-19T01:33:16;3.73;;;3.43;;
545;SDS011;259;53.304;9.816;2023-10-19T01:35:43;4.37;;;3.97;;
545;SDS011;259;53.304;9.816;2023-10-19T01:38:29;4.13;;;3.83;;
545;SDS011;259;53.304;9.816;2023-10-19T01:40:58;4.70;;;4.20;;
545;SDS011;259;53.304;9.816;2023-10-19T01:43:44;3.93;;;3.70;;
545;SDS011;259;53.304;9.816;2023-10-19T01:46:15;4.00;;;3.70;;
545;SDS011;259;53.304;9.816;2023-10-19T01:48:56;4.70;;;4.30;;
545;SDS011;259;53.304;9.816;2023-10-19T01:51:23;4.50;;;4.10;;
545;SDS011;259;53.304;9.816;2023-10-19T01:53:51;4.70;;;4.27;;
545;SDS011;259;53.304;9.816;2023-10-19T01:56:18;3.73;;;3.53;;
545;SDS011;259;53.304;9.816;2023-10-19T01:58:44;3.90;;;3.60;;
545;SDS011;259;53.304;9.816;2023-10-19T02:01:16;3.57;;;3.27;;
545;SDS011;259;53.304;9.816;2023-10-19T02:03:59;3.77;;;3.53;;
545;SDS011;259;53.304;9.816;2023-10-19T02:06:29;4.40;;;4.00;;
545;SDS011;259;53.304;9.816;2023-10-19T02:09:20;4.30;;;4.00;;
545;SDS011;259;53.304;9.816;2023-10-19T02:11:49;4.40;;;4.00;;
545;SDS011;259;53.304;9.816;2023-10-19T02:14:18;3.63;;;3.43;;
545;SDS011;259;53.304;9.816;2023-10-19T02:16:48;3.87;;;3.57;;
545;SDS011;259;53.304;9.816;2023-10-19T02:19:17;4.07;;;3.67;;
545;SDS011;259;53.304;9.816;2023-10-19T02:21:45;4.00;;;3.70;;
545;SDS011;259;53.304;9.816;2023-10-19T02:24:13;4.20;;;3.90;;
545;SDS011;259;53.304;9.816;2023-10-19T02:26:40;3.83;;;3.53;;
545;SDS011;259;53.304;9.816;2023-10-19T02:29:08;4.43;;;4.07;;
545;SDS011;259;53.304;9.816;2023-10-19T02:31:35;4.10;;;3.80;;
545;SDS011;259;53.304;9.816;2023-10-19T02:34:05;3.30;;;3.10;;
545;SDS011;259;53.304;9.816;2023-10-19T02:36:33;4.10;;;3.80;;
545;SDS011;259;53.304;9.816;2023-10-19T02:38:59;4.70;;;4.40;;
545;SDS011;259;53.304;9.816;2023-10-19T02:41:41;4.30;;;4.00;;
545;SDS011;259;53.304;9.816;2023-10-19T02:44:12;4.30;;;4.00;;
545;SDS011;259;53.304;9.816;2023-10-19T02:46:45;4.00;;;3.70;;
545;SDS011;259;53.304;9.816;2023-10-19T02:49:14;4.33;;;4.03;;
545;SDS011;259;53.304;9.816;2023-10-19T02:51:43;4.30;;;4.00;;
545;SDS011;259;53.304;9.816;2023-10-19T02:54:14;4.60;;;4.20;;
545;SDS011;259;53.304;9.816;2023-10-19T02:56:45;3.50;;;3.30;;
545;SDS011;259;53.304;9.816;2023-10-19T02:59:17;4.67;;;4.30;;
545;SDS011;259;53.304;9.816;2023-10-19T03:01:47;3.73;;;3.53;;
545;SDS011;259;53.304;9.816;2023-10-19T03:04:35;3.53;;;3.33;;
545;SDS011;259;53.304;9.816;2023-10-19T03:07:04;4.00;;;3.70;;
545;SDS011;259;53.304;9.816;2023-10-19T03:09:32;4.37;;;4.00;;
545;SDS011;259;53.304;9.816;2023-10-19T03:12:01;4.10;;;3.80;;
545;SDS011;259;53.304;9.816;2023-10-19T03:14:29;4.03;;;3.83;;
545;SDS011;259;53.304;9.816;2023-10-19T03:16:56;3.90;;;3.70;;
545;SDS011;259;53.304;9.816;2023-10-19T03:19:24;4.20;;;3.80;;
545;SDS011;259;53.304;9.816;2023-10-19T03:21:50;4.10;;;3.80;;
545;SDS011;259;53.304;9.816;2023-10-19T03:24:16;4.30;;;4.00;;
545;SDS011;259;53.304;9.816;2023-10-19T03:27:03;4.20;;;3.80;;
545;SDS011;259;53.304;9.816;2023-10-19T03:29:42;4.73;;;4.30;;
545;SDS011;259;53.304;9.816;2023-10-19T03:32:18;3.60;;;3.30;;
545;SDS011;259;53.304;9.816;2023-10-19T03:34:51;4.07;;;3.77;;
545;SDS011;259;53.304;9.816;2023-10-19T03:37:21;4.50;;;4.20;;
545;SDS011;259;53.304;9.816;2023-10-19T03:39:55;4.07;;;3.77;;
545;SDS011;259;53.304;9.816;2023-10-19T03:42:21;4.23;;;3.93;;
545;SDS011;259;53.304;9.816;2023-10-19T03:44:51;4.17;;;3.87;;
545;SDS011;259;53.304;9.816;2023-10-19T03:47:20;3.57;;;3.30;;
545;SDS011;259;53.304;9.816;2023-10-19T03:49:51;4.10;;;3.80;;
545;SDS011;259;53.304;9.816;2023-10-19T03:52:18;4.10;;;3.80;;
545;SDS011;259;53.304;9.816;2023-10-19T03:54:43;3.90;;;3.60;;
545;SDS011;259;53.304;9.816;2023-10-19T03:57:10;4.30;;;3.93;;
545;SDS011;259;53.304;9.816;2023-10-19T03:59:41;4.27;;;3.97;;
545;SDS011;259;53.304;9.816;2023-10-19T04:02:10;3.93;;;3.63;;
545;SDS011;259;53.304;9.816;2023-10-19T04:04:42;3.80;;;3.50;;
545;SDS011;259;53.304;9.816;2023-10-19T04:07:11;4.30;;;3.67;;
545;SDS011;259;53.304;9.816;2023-10-19T04:09:45;4.00;;;3.70;;
545;SDS011;259;53.304;9.816;2023-10-19T04:12:33;4.50;;;4.10;;
545;SDS011;259;53.304;9.816;2023-10-19T04:15:07;4.23;;;3.83;;
545;SDS011;259;53.304;9.816;2023-10-19T04:17:42;4.07;;;3.77;;
545;SDS011;259;53.304;9.816;2023-10-19T04:20:13;4.30;;;4.00;;
545;SDS011;259;53.304;9.816;2023-10-19T04:22:43;4.10;;;3.80;;
545;SDS011;259;53.304;9.816;2023-10-19T04:25:15;4.53;;;4.23;;
545;SDS011;259;53.304;9.816;2023-10-19T04:27:47;4.13;;;3.83;;
545;SDS011;259;53.304;9.816;2023-10-19T04:30:14;3.83;;;3.53;;
545;SDS011;259;53.304;9.816;2023-10-19T04:32:46;4.10;;;3.73;;
545;SDS011;259;53.304;9.816;2023-10-19T04:35:14;4.67;;;4.30;;
545;SDS011;259;53.304;9.816;2023-10-19T04:37:50;4.27;;;3.97;;
545;SDS011;259;53.304;9.816;2023-10-19T04:40:17;4.40;;;4.00;;
545;SDS011;259;53.304;9.816;2023-10-19T04:42:44;4.33;;;4.03;;
545;SDS011;259;53.304;9.816;2023-10-19T04:45:11;4.23;;;3.83;;
545;SDS011;259;53.304;9.816;2023-10-19T04:47:38;4.13;;;3.83;;
545;SDS011;259;53.304;9.816;2023-10-19T04:50:07;4.40;;;4.00;;
545;SDS011;259;53.304;9.816;2023-10-19T04:52:35;4.47;;;4.17;;
545;SDS011;259;53.304;9.816;2023-10-19T04:55:01;4.60;;;4.20;;
545;SDS011;259;53.304;9.816;2023-10-19T04:57:28;4.60;;;4.30;;
545;SDS011;259;53.304;9.816;2023-10-19T04:59:54;4.50;;;4.20;;
545;SDS011;259;53.304;9.816;2023-10-19T05:02:20;4.30;;;4.00;;
545;SDS011;259;53.304;9.816;2023-10-19T05:04:46;4.70;;;4.30;;
545;SDS011;259;53.304;9.816;2023-10-19T05:07:12;4.10;;;3.80;;
545;SDS011;259;53.304;9.816;2023-10-19T05:09:41;4.33;;;3.93;;
545;SDS011;259;53.304;9.816;2023-10-19T05:12:08;4.60;;;4.20;;
545;SDS011;259;53.304;9.816;2023-10-19T05:14:41;5.20;;;4.70;;
545;SDS011;259;53.304;9.816;2023-10-19T05:17:07;4.23;;;3.83;;
545;SDS011;259;53.304;9.816;2023-10-19T05:19:35;4.60;;;4.27;;
545;SDS011;259;53.304;9.816;2023-10-19T05:22:03;4.50;;;4.10;;
545;SDS011;259;53.304;9.816;2023-10-19T05:24:34;5.63;;;4.77;;
545;SDS011;259;53.304;9.816;2023-10-19T05:27:00;4.57;;;4.27;;
545;SDS011;259;53.304;9.816;2023-10-19T05:29:26;4.57;;;4.27;;
545;SDS011;259;53.304;9.816;2023-10-19T05:31:52;5.20;;;4.70;;
545;SDS011;259;53.304;9.816;2023-10-19T05:34:22;4.53;;;4.23;;
545;SDS011;259;53.304;9.816;2023-10-19T05:36:49;4.87;;;4.47;;
545;SDS011;259;53.304;9.816;2023-10-19T05:39:17;4.30;;;4.00;;
545;SDS011;259;53.304;9.816;2023-10-19T05:41:45;5.17;;;4.67;;
545;SDS011;259;53.304;9.816;2023-10-19T05:44:11;3.90;;;3.60;;
545;SDS011;259;53.304;9.816;2023-10-19T05:46:36;5.40;;;5.00;;
545;SDS011;259;53.304;9.816;2023-10-19T05:49:03;5.20;;;4.80;;
545;SDS011;259;53.304;9.816;2023-10-19T05:51:31;4.50;;;4.20;;
545;SDS011;259;53.304;9.816;2023-10-19T05:53:56;4.60;;;4.20;;
545;SDS011;259;53.304;9.816;2023-10-19T05:56:30;4.63;;;4.33;;
545;SDS011;259;53.304;9.816;2023-10-19T05:58:56;4.53;;;4.20;;
545;SDS011;259;53.304;9.816;2023-10-19T06:01:23;4.83;;;4.43;;
545;SDS011;259;53.304;9.816;2023-10-19T06:03:49;4.70;;;4.30;;
545;SDS011;259;53.304;9.816;2023-10-19T06:06:16;4.37;;;4.00;;
545;SDS011;259;53.304;9.816;2023-10-19T06:08:41;4.70;;;4.40;;
545;SDS011;259;53.304;9.816;2023-10-19T06:11:07;4.50;;;4.20;;
545;SDS011;259;53.304;9.816;2023-10-19T06:13:33;4.30;;;4.00;;
545;SDS011;259;53.304;9.816;2023-10-19T06:15:59;5.27;;;4.90;;
545;SDS011;259;53.304;9.816;2023-10-19T06:18:24;3.93;;;3.63;;
545;SDS011;259;53.304;9.816;2023-10-19T06:20:50;4.73;;;4.33;;
545;SDS011;259;53.304;9.816;2023-10-19T06:23:16;4.60;;;4.30;;
545;SDS011;259;53.304;9.816;2023-10-19T06:25:43;4.87;;;4.57;;
545;SDS011;259;53.304;9.816;2023-10-19T06:28:09;4.33;;;4.03;;
545;SDS011;259;53.304;9.816;2023-10-19T06:30:36;4.17;;;3.87;;
545;SDS011;259;53.304;9.816;2023-10-19T06:33:02;4.63;;;4.23;;
545;SDS011;259;53.304;9.816;2023-10-19T06:35:29;4.83;;;4.43;;
545;SDS011;259;53.304;9.816;2023-10-19T06:38:01;4.90;;;4.40;;
545;SDS011;259;53.304;9.816;2023-10-19T06:40:29;5.00;;;4.60;;
545;SDS011;259;53.304;9.816;2023-10-19T06:42:56;4.20;;;3.90;;
545;SDS011;259;53.304;9.816;2023-10-19T06:45:23;5.57;;;5.07;;
545;SDS011;259;53.304;9.816;2023-10-19T06:47:50;4.80;;;4.40;;
545;SDS011;259;53.304;9.816;2023-10-19T06:50:18;4.40;;;4.10;;
545;SDS011;259;53.304;9.816;2023-10-19T06:52:46;4.83;;;4.43;;
545;SDS011;259;53.304;9.816;2023-10-19T06:55:13;4.70;;;4.30;;
545;SDS011;259;53.304;9.816;2023-10-19T06:57:44;4.70;;;4.40;;
545;SDS011;259;53.304;9.816;2023-10-19T07:00:14;4.90;;;4.43;;
545;SDS011;259;53.304;9.816;2023-10-19T07:02:44;4.50;;;4.20;;
545;SDS011;259;53.304;9.816;2023-10-19T07:05:11;4.90;;;4.50;;
545;SDS011;259;53.304;9.816;2023-10-19T07:07:42;4.43;;;4.13;;
545;SDS011;259;53.304;9.816;2023-10-19T07:10:09;4.20;;;3.90;;
545;SDS011;259;53.304;9.816;2023-10-19T07:12:38;5.07;;;4.60;;
545;SDS011;259;53.304;9.816;2023-10-19T07:15:07;5.47;;;4.90;;
545;SDS011;259;53.304;9.816;2023-10-19T07:17:39;4.83;;;4.40;;
545;SDS011;259;53.304;9.816;2023-10-19T07:20:08;4.17;;;3.90;;
545;SDS011;259;53.304;9.816;2023-10-19T07:22:55;4.83;;;4.43;;
545;SDS011;259;53.304;9.816;2023-10-19T07:25:25;4.30;;;3.93;;
545;SDS011;259;53.304;9.816;2023-10-19T07:27:51;4.47;;;4.17;;
545;SDS011;259;53.304;9.816;2023-10-19T07:30:17;4.57;;;4.27;;
545;SDS011;259;53.304;9.816;2023-10-19T07:32:51;5.03;;;4.60;;
545;SDS011;259;53.304;9.816;2023-10-19T07:35:24;4.37;;;4.00;;
545;SDS011;259;53.304;9.816;2023-10-19T07:37:53;4.97;;;4.47;;
545;SDS011;259;53.304;9.816;2023-10-19T07:40:21;5.20;;;4.70;;
545;SDS011;259;53.304;9.816;2023-10-19T07:42:49;5.07;;;4.67;;
545;SDS011;259;53.304;9.816;2023-10-19T07:45:17;4.20;;;3.87;;
545;SDS011;259;53.304;9.816;2023-10-19T07:47:43;5.23;;;4.83;;
545;SDS011;259;53.304;9.816;2023-10-19T07:50:10;4.07;;;3.77;;
545;SDS011;259;53.304;9.816;2023-10-19T07:52:41;4.03;;;3.73;;
545;SDS011;259;53.304;9.816;2023-10-19T07:55:17;5.00;;;4.60;;
545;SDS011;259;53.304;9.816;2023-10-19T07:57:44;5.17;;;4.67;;
545;SDS011;259;53.304;9.816;2023-10-19T08:00:10;5.17;;;4.77;;
545;SDS011;259;53.304;9.816;2023-10-19T08:02:40;6.07;;;5.57;;
545;SDS011;259;53.304;9.816;2023-10-19T08:05:12;4.83;;;4.50;;
545;SDS011;259;53.304;9.816;2023-10-19T08:07:40;4.90;;;4.50;;
545;SDS011;259;53.304;9.816;2023-10-19T08:10:11;5.07;;;4.67;;
545;SDS011;259;53.304;9.816;2023-10-19T08:12:38;4.83;;;4.53;;
545;SDS011;259;53.304;9.816;2023-10-19T08:15:08;4.53;;;4.23;;
545;SDS011;259;53.304;9.816;2023-10-19T08:17:39;4.63;;;4.23;;
545;SDS011;259;53.304;9.816;2023-10-19T08:20:06;4.90;;;4.50;;
545;SDS011;259;53.304;9.816;2023-10-19T08:22:35;4.70;;;4.30;;
545;SDS011;259;53.304;9.816;2023-10-19T08:25:02;5.13;;;4.80;;
545;SDS011;259;53.304;9.816;2023-10-19T08:27:29;5.40;;;4.90;;
545;SDS011;259;53.304;9.816;2023-10-19T08:29:56;5.20;;;4.80;;
545;SDS011;259;53.304;9.816;2023-10-19T08:32:22;4.50;;;4.20;;
545;SDS011;259;53.304;9.816;2023-10-19T08:34:47;5.40;;;4.90;;
545;SDS011;259;53.304;9.816;2023-10-19T08:37:13;5.17;;;4.77;;
545;SDS011;259;53.304;9.816;2023-10-19T08:39:39;5.30;;;4.70;;
545;SDS011;259;53.304;9.816;2023-10-19T08:42:05;5.30;;;4.80;;
545;SDS011;259;53.304;9.816;2023-10-19T08:44:32;4.60;;;4.20;;
545;SDS011;259;53.304;9.816;2023-10-19T08:46:58;4.93;;;4.30;;
545;SDS011;259;53.304;9.816;2023-10-19T08:49:26;5.53;;;5.03;;
545;SDS011;259;53.304;9.816;2023-10-19T08:51:53;5.20;;;4.80;;
545;SDS011;259;53.304;9.816;2023-10-19T08:54:20;5.70;;;5.20;;
545;SDS011;259;53.304;9.816;2023-10-19T08:56:46;5.43;;;5.03;;
545;SDS011;259;53.304;9.816;2023-10-19T08:59:13;4.37;;;3.97;;
545;SDS011;259;53.304;9.816;2023-10-19T09:01:42;4.80;;;4.40;;
545;SDS011;259;53.304;9.816;2023-10-19T09:04:12;4.80;;;4.40;;
545;SDS011;259;53.304;9.816;2023-10-19T09:06:41;6.30;;;5.70;;
545;SDS011;259;53.304;9.816;2023-10-19T09:09:13;5.23;;;4.83;;
545;SDS011;259;53.304;9.816;2023-10-19T09:11:44;5.23;;;4.73;;
545;SDS011;259;53.304;9.816;2023-10-19T09:14:13;4.97;;;4.67;;
545;SDS011;259;53.304;9.816;2023-10-19T09:16:55;5.00;;;4.60;;
545;SDS011;259;53.304;9.816;2023-10-19T09:19:38;5.10;;;4.60;;
545;SDS011;259;53.304;9.816;2023-10-19T09:22:10;5.07;;;4.67;;
545;SDS011;259;53.304;9.816;2023-10-19T09:24:46;5.33;;;4.93;;
545;SDS011;259;53.304;9.816;2023-10-19T09:27:16;5.07;;;4.67;;
545;SDS011;259;53.304;9.816;2023-10-19T09:29:42;5.77;;;5.30;;
545;SDS011;259;53.304;9.816;2023-10-19T09:32:08;6.60;;;6.10;;
545;SDS011;259;53.304;9.816;2023-10-19T09:34:35;4.67;;;4.30;;
545;SDS011;259;53.304;9.816;2023-10-19T09:37:01;4.30;;;3.90;;
545;SDS011;259;53.304;9.816;2023-10-19T09:39:32;5.67;;;5.27;;
545;SDS011;259;53.304;9.816;2023-10-19T09:42:05;4.47;;;4.17;;
545;SDS011;259;53.304;9.816;2023-10-19T09:44:42;5.47;;;5.07;;
545;SDS011;259;53.304;9.816;2023-10-19T09:47:53;5.03;;;4.63;;
545;SDS011;259;53.304;9.816;2023-10-19T09:50:01;5.53;;;5.03;;
545;SDS011;259;53.304;9.816;2023-10-19T09:52:30;5.13;;;4.73;;
545;SDS011;259;53.304;9.816;2023-10-19T09:54:59;5.50;;;5.10;;
545;SDS011;259;53.304;9.816;2023-10-19T09:57:37;5.30;;;4.80;;
545;SDS011;259;53.304;9.816;2023-10-19T10:00:16;5.17;;;4.77;;
545;SDS011;259;53.304;9.816;2023-10-19T10:02:48;4.77;;;4.40;;
545;SDS011;259;53.304;9.816;2023-10-19T10:10:51;5.50;;;5.10;;
545;SDS011;259;53.304;9.816;2023-10-19T10:15:55;5.43;;;5.03;;
545;SDS011;259;53.304;9.816;2023-10-19T10:18:25;4.77;;;4.37;;
545;SDS011;259;53.304;9.816;2023-10-19T10:23:35;5.80;;;5.40;;
545;SDS011;259;53.304;9.816;2023-10-19T10:26:07;5.20;;;4.80;;
545;SDS011;259;53.304;9.816;2023-10-19T10:28:34;5.70;;;5.20;;
545;SDS011;259;53.304;9.816;2023-10-19T10:31:06;5.33;;;4.83;;
545;SDS011;259;53.304;9.816;2023-10-19T10:36:05;5.73;;;5.13;;
545;SDS011;259;53.304;9.816;2023-10-19T10:38:35;4.50;;;4.20;;
545;SDS011;259;53.304;9.816;2023-10-19T10:41:01;5.70;;;5.20;;
545;SDS011;259;53.304;9.816;2023-10-19T10:43:27;5.50;;;5.00;;
545;SDS011;259;53.304;9.816;2023-10-19T10:46:01;5.57;;;5.07;;
545;SDS011;259;53.304;9.816;2023-10-19T10:48:32;5.73;;;5.30;;
545;SDS011;259;53.304;9.816;2023-10-19T10:50:58;4.90;;;4.50;;
545;SDS011;259;53.304;9.816;2023-10-19T10:53:24;5.57;;;5.17;;
545;SDS011;259;53.304;9.816;2023-10-19T10:55:51;5.70;;;5.20;;
545;SDS011;259;53.304;9.816;2023-10-19T10:58:18;5.07;;;4.67;;
545;SDS011;259;53.304;9.816;2023-10-19T11:00:44;5.97;;;5.47;;
545;SDS011;259;53.304;9.816;2023-10-19T11:03:12;5.97;;;5.47;;
545;SDS011;259;53.304;9.816;2023-10-19T11:05:39;5.33;;;5.00;;
545;SDS011;259;53.304;9.816;2023-10-19T11:10:34;5.47;;;5.10;;
545;SDS011;259;53.304;9.816;2023-10-19T11:15:32;5.40;;;4.93;;
545;SDS011;259;53.304;9.816;2023-10-19T11:17:59;5.70;;;5.20;;
545;SDS011;259;53.304;9.816;2023-10-19T11:20:26;5.60;;;5.20;;
545;SDS011;259;53.304;9.816;2023-10-19T11:22:52;5.47;;;5.07;;
545;SDS011;259;53.304;9.816;2023-10-19T11:25:24;5.77;;;5.27;;
545;SDS011;259;53.304;9.816;2023-10-19T11:27:55;6.13;;;5.70;;
545;SDS011;259;53.304;9.816;2023-10-19T11:30:26;6.17;;;5.67;;
545;SDS011;259;53.304;9.816;2023-10-19T11:32:54;5.50;;;5.00;;
545;SDS011;259;53.304;9.816;2023-10-19T11:35:24;6.40;;;5.80;;
545;SDS011;259;53.304;9.816;2023-10-19T11:37:53;5.70;;;5.20;;
545;SDS011;259;53.304;9.816;2023-10-19T11:40:24;6.53;;;6.03;;
545;SDS011;259;53.304;9.816;2023-10-19T11:42:51;5.73;;;5.33;;
545;SDS011;259;53.304;9.816;2023-10-19T11:45:25;5.80;;;5.40;;
545;SDS011;259;53.304;9.816;2023-10-19T11:47:52;6.30;;;5.70;;
545;SDS011;259;53.304;9.816;2023-10-19T11:50:19;6.20;;;5.70;;
545;SDS011;259;53.304;9.816;2023-10-19T11:52:45;5.80;;;5.30;;
545;SDS011;259;53.304;9.816;2023-10-19T11:55:14;6.10;;;5.50;;
545;SDS011;259;53.304;9.816;2023-10-19T11:57:41;6.07;;;5.57;;
545;SDS011;259;53.304;9.816;2023-10-19T12:00:08;6.13;;;5.63;;
545;SDS011;259;53.304;9.816;2023-10-19T12:02:47;6.23;;;5.77;;
545;SDS011;259;53.304;9.816;2023-10-19T12:05:13;5.60;;;5.20;;
545;SDS011;259;53.304;9.816;2023-10-19T12:07:39;6.40;;;5.90;;
545;SDS011;259;53.304;9.816;2023-10-19T12:10:06;5.90;;;5.40;;
545;SDS011;259;53.304;9.816;2023-10-19T12:12:34;6.37;;;5.83;;
545;SDS011;259;53.304;9.816;2023-10-19T12:15:02;6.27;;;5.77;;
545;SDS011;259;53.304;9.816;2023-10-19T12:17:32;6.30;;;5.80;;
545;SDS011;259;53.304;9.816;2023-10-19T12:19:58;5.87;;;5.37;;
545;SDS011;259;53.304;9.816;2023-10-19T12:22:24;6.33;;;5.83;;
545;SDS011;259;53.304;9.816;2023-10-19T12:24:53;5.90;;;5.40;;
545;SDS011;259;53.304;9.816;2023-10-19T12:27:21;6.10;;;5.60;;
545;SDS011;259;53.304;9.816;2023-10-19T12:29:49;6.40;;;5.90;;
545;SDS011;259;53.304;9.816;2023-10-19T12:32:17;6.23;;;5.83;;
545;SDS011;259;53.304;9.816;2023-10-19T12:34:43;6.23;;;5.83;;
545;SDS011;259;53.304;9.816;2023-10-19T12:37:10;5.70;;;5.20;;
545;SDS011;259;53.304;9.816;2023-10-19T12:39:37;6.80;;;6.20;;
545;SDS011;259;53.304;9.816;2023-10-19T12:42:14;5.90;;;5.43;;
545;SDS011;259;53.304;9.816;2023-10-19T12:44:40;6.30;;;5.80;;
545;SDS011;259;53.304;9.816;2023-10-19T12:47:10;5.90;;;5.40;;
545;SDS011;259;53.304;9.816;2023-10-19T12:49:39;6.30;;;5.90;;
545;SDS011;259;53.304;9.816;2023-10-19T12:52:06;6.23;;;5.70;;
545;SDS011;259;53.304;9.816;2023-10-19T12:54:33;6.50;;;5.90;;
545;SDS011;259;53.304;9.816;2023-10-19T12:57:02;6.07;;;5.67;;
545;SDS011;259;53.304;9.816;2023-10-19T12:59:32;7.00;;;6.40;;
545;SDS011;259;53.304;9.816;2023-10-19T13:01:59;6.43;;;5.90;;
545;SDS011;259;53.304;9.816;2023-10-19T13:04:28;6.13;;;5.63;;
545;SDS011;259;53.304;9.816;2023-10-19T13:06:56;7.00;;;6.43;;
545;SDS011;259;53.304;9.816;2023-10-19T13:09:23;6.53;;;5.93;;
545;SDS011;259;53.304;9.816;2023-10-19T13:11:56;6.63;;;6.13;;
545;SDS011;259;53.304;9.816;2023-10-19T13:14:32;6.40;;;5.90;;
545;SDS011;259;53.304;9.816;2023-10-19T13:16:59;5.80;;;5.40;;
545;SDS011;259;53.304;9.816;2023-10-19T13:19:25;5.60;;;5.20;;
545;SDS011;259;53.304;9.816;2023-10-19T13:21:51;5.63;;;5.13;;
545;SDS011;259;53.304;9.816;2023-10-19T13:24:19;6.20;;;5.70;;
545;SDS011;259;53.304;9.816;2023-10-19T13:26:48;6.00;;;5.50;;
545;SDS011;259;53.304;9.816;2023-10-19T13:29:13;5.90;;;5.40;;
545;SDS011;259;53.304;9.816;2023-10-19T13:31:40;5.60;;;5.20;;
545;SDS011;259;53.304;9.816;2023-10-19T13:34:06;7.00;;;6.40;;
545;SDS011;259;53.304;9.816;2023-10-19T13:36:35;6.53;;;6.03;;
545;SDS011;259;53.304;9.816;2023-10-19T13:39:01;5.73;;;5.33;;
545;SDS011;259;53.304;9.816;2023-10-19T13:41:28;5.83;;;5.33;;
545;SDS011;259;53.304;9.816;2023-10-19T13:43:54;5.70;;;5.27;;
545;SDS011;259;53.304;9.816;2023-10-19T13:46:20;6.30;;;5.80;;
545;SDS011;259;53.304;9.816;2023-10-19T13:48:48;6.43;;;5.93;;
545;SDS011;259;53.304;9.816;2023-10-19T13:51:17;6.57;;;5.97;;
545;SDS011;259;53.304;9.816;2023-10-19T13:53:44;5.93;;;5.43;;
545;SDS011;259;53.304;9.816;2023-10-19T13:56:10;5.73;;;5.27;;
545;SDS011;259;53.304;9.816;2023-10-19T13:58:37;5.30;;;4.90;;
545;SDS011;259;53.304;9.816;2023-10-19T14:01:07;6.80;;;6.23;;
545;SDS011;259;53.304;9.816;2023-10-19T14:03:34;5.60;;;5.10;;
545;SDS011;259;53.304;9.816;2023-10-19T14:06:02;5.70;;;5.20;;
545;SDS011;259;53.304;9.816;2023-10-19T14:08:28;5.97;;;5.57;;
545;SDS011;259;53.304;9.816;2023-10-19T14:11:00;6.00;;;5.60;;
545;SDS011;259;53.304;9.816;2023-10-19T14:13:27;5.80;;;5.30;;
545;SDS011;259;53.304;9.816;2023-10-19T14:15:53;5.77;;;5.37;;
545;SDS011;259;53.304;9.816;2023-10-19T14:18:18;5.70;;;5.30;;
545;SDS011;259;53.304;9.816;2023-10-19T14:20:44;6.13;;;5.73;;
545;SDS011;259;53.304;9.816;2023-10-19T14:23:09;6.20;;;5.70;;
545;SDS011;259;53.304;9.816;2023-10-19T14:25:36;5.50;;;5.10;;
545;SDS011;259;53.304;9.816;2023-10-19T14:28:07;6.03;;;5.63;;
545;SDS011;259;53.304;9.816;2023-10-19T14:30:34;6.23;;;5.80;;
545;SDS011;259;53.304;9.816;2023-10-19T14:33:00;5.80;;;5.40;;
545;SDS011;259;53.304;9.816;2023-10-19T14:35:26;5.33;;;4.93;;
545;SDS011;259;53.304;9.816;2023-10-19T14:37:53;5.20;;;4.80;;
545;SDS011;259;53.304;9.816;2023-10-19T14:40:22;6.87;;;6.27;;
545;SDS011;259;53.304;9.816;2023-10-19T14:42:50;5.50;;;5.10;;
545;SDS011;259;53.304;9.816;2023-10-19T14:45:21;5.50;;;5.10;;
545;SDS011;259;53.304;9.816;2023-10-19T14:47:51;6.10;;;5.60;;
545;SDS011;259;53.304;9.816;2023-10-19T14:50:21;5.37;;;4.90;;
545;SDS011;259;53.304;9.816;2023-10-19T14:52:48;5.63;;;5.13;;
545;SDS011;259;53.304;9.816;2023-10-19T14:55:16;5.00;;;4.60;;
545;SDS011;259;53.304;9.816;2023-10-19T14:57:43;5.90;;;5.50;;
545;SDS011;259;53.304;9.816;2023-10-19T15:00:15;5.27;;;4.87;;
545;SDS011;259;53.304;9.816;2023-10-19T15:02:52;5.63;;;5.23;;
545;SDS011;259;53.304;9.816;2023-10-19T15:05:20;5.40;;;5.00;;
545;SDS011;259;53.304;9.816;2023-10-19T15:07:48;5.60;;;5.10;;
545;SDS011;259;53.304;9.816;2023-10-19T15:10:22;5.60;;;5.20;;
545;SDS011;259;53.304;9.816;2023-10-19T15:12:51;5.90;;;5.40;;
545;SDS011;259;53.304;9.816;2023-10-19T15:15:18;5.53;;;5.13;;
545;SDS011;259;53.304;9.816;2023-10-19T15:17:44;5.90;;;5.40;;
545;SDS011;259;53.304;9.816;2023-10-19T15:20:12;5.27;;;4.87;;
545;SDS011;259;53.304;9.816;2023-10-19T15:22:40;5.70;;;5.30;;
545;SDS011;259;53.304;9.816;2023-10-19T15:25:07;5.60;;;5.20;;
545;SDS011;259;53.304;9.816;2023-10-19T15:27:33;5.63;;;5.23;;
545;SDS011;259;53.304;9.816;2023-10-19T15:30:01;5.80;;;5.40;;
545;SDS011;259;53.304;9.816;2023-10-19T15:32:27;5.47;;;5.07;;
545;SDS011;259;53.304;9.816;2023-10-19T15:34:55;5.73;;;5.13;;
545;SDS011;259;53.304;9.816;2023-10-19T15:37:21;5.00;;;4.60;;
545;SDS011;259;53.304;9.816;2023-10-19T15:39:48;6.17;;;5.60;;
545;SDS011;259;53.304;9.816;2023-10-19T15:42:17;5.73;;;5.33;;
545;SDS011;259;53.304;9.816;2023-10-19T15:44:46;5.70;;;5.27;;
545;SDS011;259;53.304;9.816;2023-10-19T15:47:13;4.80;;;4.50;;
545;SDS011;259;53.304;9.816;2023-10-19T15:49:47;6.00;;;5.30;;
545;SDS011;259;53.304;9.816;2023-10-19T15:52:21;5.43;;;5.03;;
545;SDS011;259;53.304;9.816;2023-10-19T15:54:53;5.50;;;5.10;;
545;SDS011;259;53.304;9.816;2023-10-19T15:57:19;5.40;;;5.00;;
545;SDS011;259;53.304;9.816;2023-10-19T15:59:46;5.53;;;5.13;;
545;SDS011;259;53.304;9.816;2023-10-19T16:02:12;4.80;;;4.50;;
545;SDS011;259;53.304;9.816;2023-10-19T16:04:40;5.80;;;5.30;;
545;SDS011;259;53.304;9.816;2023-10-19T16:07:10;5.63;;;5.20;;
545;SDS011;259;53.304;9.816;2023-10-19T16:09:39;6.00;;;5.50;;
545;SDS011;259;53.304;9.816;2023-10-19T16:12:06;5.80;;;5.30;;
545;SDS011;259;53.304;9.816;2023-10-19T16:14:33;5.13;;;4.73;;
545;SDS011;259;53.304;9.816;2023-10-19T16:17:04;5.13;;;4.73;;
545;SDS011;259;53.304;9.816;2023-10-19T16:19:31;5.23;;;4.83;;